Time;durP1;ratioP1;P1;durP2;ratioP2;P2;SDS_P1;SDS_P2;PMS_P1;PMS_P2;Temp;Humidity;BMP_temperature;BMP_pressure;BME280_temperature;BME280_humidity;BME280_pressure;Samples;Min_cycle;Max_cycle;Signal;HPM_P1;HPM_P2
2021/06/27 00:02:01;;;;;;;10.80;6.88;;;;;;;;;;5051782;28;20046;-73
2021/06/27 00:04:46;;;;;;;9.20;6.72;;;;;;;;;;5073288;28;20046;-74
2021/06/27 00:07:31;;;;;;;10.10;6.97;;;;;;;;;;5055187;28;20544;-73
2021/06/27 00:10:16;;;;;;;11.02;7.07;;;;;;;;;;5079045;28;20407;-74
2021/06/27 00:13:01;;;;;;;9.63;6.50;;;;;;;;;;5066356;28;20067;-73
2021/06/27 00:15:47;;;;;;;12.93;6.68;;;;;;;;;;5044280;28;20051;-74
2021/06/27 00:18:31;;;;;;;9.60;5.85;;;;;;;;;;5064224;28;20043;-74
2021/06/27 00:21:16;;;;;;;9.40;6.45;;;;;;;;;;5052067;28;20121;-73
2021/06/27 00:24:01;;;;;;;10.23;6.82;;;;;;;;;;5063623;28;20033;-73
2021/06/27 00:26:46;;;;;;;10.15;6.28;;;;;;;;;;5063461;28;20078;-74
2021/06/27 00:29:30;;;;;;;9.95;5.97;;;;;;;;;;5065604;28;20094;-73
2021/06/27 00:32:15;;;;;;;9.50;6.45;;;;;;;;;;5061035;28;20051;-76
2021/06/27 00:34:59;;;;;;;8.05;5.93;;;;;;;;;;5059002;28;20070;-74
2021/06/27 00:37:44;;;;;;;9.60;5.78;;;;;;;;;;5066567;28;20048;-74
2021/06/27 00:40:29;;;;;;;7.90;5.40;;;;;;;;;;5065254;28;20387;-73
2021/06/27 00:43:14;;;;;;;9.50;5.45;;;;;;;;;;5061280;28;20046;-74
2021/06/27 00:45:59;;;;;;;8.02;5.10;;;;;;;;;;5062301;28;20043;-74
2021/06/27 00:48:44;;;;;;;8.98;5.68;;;;;;;;;;5066033;28;20172;-74
2021/06/27 00:51:29;;;;;;;6.97;4.97;;;;;;;;;;5047136;28;20105;-73
2021/06/27 00:54:14;;;;;;;7.28;4.93;;;;;;;;;;5059532;28;20124;-74
2021/06/27 00:56:58;;;;;;;7.00;4.90;;;;;;;;;;5048012;28;20040;-74
2021/06/27 00:59:43;;;;;;;8.45;5.10;;;;;;;;;;5079430;28;20043;-73
2021/06/27 01:02:27;;;;;;;8.02;4.95;;;;;;;;;;5058423;28;20078;-73
2021/06/27 01:05:13;;;;;;;9.02;4.90;;;;;;;;;;5078359;28;20069;-74
2021/06/27 01:07:58;;;;;;;7.75;5.03;;;;;;;;;;5062207;28;20035;-73
2021/06/27 01:10:43;;;;;;;7.18;4.50;;;;;;;;;;5071137;28;20043;-73
2021/06/27 01:13:27;;;;;;;7.47;4.80;;;;;;;;;;5061768;28;20094;-74
2021/06/27 01:16:12;;;;;;;6.90;4.35;;;;;;;;;;5061904;28;20115;-73
2021/06/27 01:18:56;;;;;;;8.80;4.88;;;;;;;;;;5062272;28;20094;-74
2021/06/27 01:21:41;;;;;;;7.03;4.80;;;;;;;;;;5051640;28;20035;-73
2021/06/27 01:24:26;;;;;;;6.45;4.28;;;;;;;;;;5063711;28;20043;-73
2021/06/27 01:27:11;;;;;;;6.97;4.07;;;;;;;;;;5063436;28;20043;-74
2021/06/27 01:29:55;;;;;;;9.65;4.47;;;;;;;;;;5063630;28;20036;-73
2021/06/27 01:32:44;;;;;;;7.25;4.47;;;;;;;;;;5062322;28;20051;-73
2021/06/27 01:35:28;;;;;;;8.18;4.25;;;;;;;;;;5048344;28;20099;-74
2021/06/27 01:38:13;;;;;;;7.70;4.40;;;;;;;;;;5063520;28;20055;-73
2021/06/27 01:40:58;;;;;;;4.88;3.90;;;;;;;;;;5073557;28;20105;-74
2021/06/27 01:43:42;;;;;;;7.22;4.00;;;;;;;;;;5063066;28;20106;-74
2021/06/27 01:46:27;;;;;;;5.97;4.03;;;;;;;;;;5053333;28;20067;-73
2021/06/27 01:49:12;;;;;;;6.75;4.07;;;;;;;;;;5067729;28;20139;-73
2021/06/27 01:51:56;;;;;;;5.65;3.88;;;;;;;;;;5053669;28;20474;-74
2021/06/27 01:54:41;;;;;;;5.40;3.80;;;;;;;;;;5069738;28;20067;-74
2021/06/27 01:57:26;;;;;;;6.90;4.38;;;;;;;;;;5083524;28;20142;-73
2021/06/27 02:00:10;;;;;;;5.05;3.58;;;;;;;;;;5046156;28;20081;-74
2021/06/27 02:02:55;;;;;;;7.00;4.05;;;;;;;;;;5072200;28;20047;-73
2021/06/27 02:05:40;;;;;;;8.75;3.78;;;;;;;;;;5061910;28;20721;-73
2021/06/27 02:08:29;;;;;;;7.05;3.75;;;;;;;;;;5050762;28;20113;-73
2021/06/27 02:11:15;;;;;;;6.88;4.05;;;;;;;;;;5064418;28;20784;-73
2021/06/27 02:13:59;;;;;;;6.78;3.75;;;;;;;;;;5077594;28;20109;-73
2021/06/27 02:16:44;;;;;;;5.13;3.47;;;;;;;;;;5065555;28;20478;-73
2021/06/27 02:19:28;;;;;;;4.88;3.42;;;;;;;;;;5064111;28;20039;-73
2021/06/27 02:22:13;;;;;;;5.35;3.53;;;;;;;;;;5065536;28;20399;-74
2021/06/27 02:24:58;;;;;;;6.22;3.55;;;;;;;;;;5062351;28;20071;-73
2021/06/27 02:27:42;;;;;;;5.35;3.53;;;;;;;;;;5074021;28;20193;-73
2021/06/27 02:30:27;;;;;;;6.07;3.55;;;;;;;;;;5066574;28;20534;-73
2021/06/27 02:33:12;;;;;;;6.00;3.10;;;;;;;;;;5077554;28;20050;-73
2021/06/27 02:35:56;;;;;;;6.53;3.40;;;;;;;;;;5049989;28;20060;-73
2021/06/27 02:38:41;;;;;;;5.93;3.53;;;;;;;;;;5072702;28;20066;-73
2021/06/27 02:41:26;;;;;;;4.70;3.15;;;;;;;;;;5053563;28;20043;-73
2021/06/27 02:44:10;;;;;;;5.13;3.30;;;;;;;;;;5084903;28;20058;-73
2021/06/27 02:46:55;;;;;;;3.85;3.08;;;;;;;;;;5074123;28;20122;-73
2021/06/27 02:49:39;;;;;;;4.65;3.22;;;;;;;;;;5069738;28;20039;-73
2021/06/27 02:52:24;;;;;;;6.53;3.35;;;;;;;;;;5071761;28;20087;-73
2021/06/27 02:55:09;;;;;;;4.45;2.85;;;;;;;;;;5080426;28;20131;-73
2021/06/27 02:57:53;;;;;;;4.47;2.92;;;;;;;;;;5065350;28;20154;-74
2021/06/27 03:00:38;;;;;;;3.80;2.90;;;;;;;;;;5064279;28;20040;-73
2021/06/27 03:03:22;;;;;;;3.35;2.60;;;;;;;;;;5064084;28;20040;-74
2021/06/27 03:06:07;;;;;;;4.15;2.80;;;;;;;;;;5057980;28;20074;-73
2021/06/27 03:08:52;;;;;;;4.65;3.10;;;;;;;;;;5079180;28;20118;-73
2021/06/27 03:11:36;;;;;;;4.72;2.85;;;;;;;;;;5078012;28;20118;-73
2021/06/27 03:14:21;;;;;;;5.13;2.78;;;;;;;;;;5086186;28;20158;-74
2021/06/27 03:17:05;;;;;;;5.82;3.47;;;;;;;;;;5074209;28;20039;-73
2021/06/27 03:19:50;;;;;;;4.85;3.38;;;;;;;;;;5068776;28;20102;-73
2021/06/27 03:22:35;;;;;;;6.13;3.00;;;;;;;;;;5070793;28;20102;-73
2021/06/27 03:25:25;;;;;;;4.13;2.80;;;;;;;;;;5053091;28;20543;-73
2021/06/27 03:28:10;;;;;;;5.28;3.33;;;;;;;;;;5072902;28;20109;-73
2021/06/27 03:30:54;;;;;;;5.18;3.50;;;;;;;;;;5070679;28;20039;-73
2021/06/27 03:33:39;;;;;;;4.18;3.10;;;;;;;;;;5053423;28;20051;-73
2021/06/27 03:36:23;;;;;;;4.47;3.15;;;;;;;;;;5067833;28;20110;-73
2021/06/27 03:39:10;;;;;;;5.38;3.30;;;;;;;;;;5067668;28;20038;-73
2021/06/27 03:41:55;;;;;;;4.93;3.00;;;;;;;;;;5074106;28;20084;-74
2021/06/27 03:44:40;;;;;;;4.90;3.40;;;;;;;;;;5070418;28;20658;-74
2021/06/27 03:47:25;;;;;;;4.90;3.47;;;;;;;;;;5081395;28;20039;-73
2021/06/27 03:50:10;;;;;;;4.45;3.35;;;;;;;;;;5076987;28;20604;-74
2021/06/27 03:52:55;;;;;;;5.85;3.13;;;;;;;;;;5080024;28;20044;-73
2021/06/27 03:55:39;;;;;;;6.13;3.38;;;;;;;;;;5085207;28;20096;-73
2021/06/27 03:58:27;;;;;;;6.40;3.67;;;;;;;;;;5082800;28;20445;-73
2021/06/27 04:01:12;;;;;;;5.45;3.55;;;;;;;;;;5059252;28;20094;-73
2021/06/27 04:03:57;;;;;;;5.55;3.72;;;;;;;;;;5080624;28;20468;-73
2021/06/27 04:06:42;;;;;;;4.93;3.85;;;;;;;;;;5078345;28;20525;-73
2021/06/27 04:09:26;;;;;;;5.45;3.55;;;;;;;;;;5067680;28;20038;-73
2021/06/27 04:12:11;;;;;;;6.28;3.78;;;;;;;;;;5082487;28;20101;-73
2021/06/27 04:14:55;;;;;;;5.35;3.78;;;;;;;;;;5060859;28;20089;-73
2021/06/27 04:17:40;;;;;;;4.35;3.20;;;;;;;;;;5071108;28;20040;-73
2021/06/27 04:20:24;;;;;;;6.60;4.03;;;;;;;;;;5066213;28;20518;-73
2021/06/27 04:23:09;;;;;;;5.47;3.88;;;;;;;;;;5066900;28;20403;-73
2021/06/27 04:25:54;;;;;;;6.40;3.85;;;;;;;;;;5056452;28;20044;-73
2021/06/27 04:28:38;;;;;;;6.93;3.97;;;;;;;;;;5080326;28;20046;-73
2021/06/27 04:31:23;;;;;;;5.38;3.47;;;;;;;;;;5079511;28;20502;-73
2021/06/27 04:34:07;;;;;;;4.95;3.33;;;;;;;;;;5051656;28;20052;-73
2021/06/27 04:36:52;;;;;;;4.45;3.38;;;;;;;;;;5062875;28;20058;-73
2021/06/27 04:39:37;;;;;;;4.97;3.60;;;;;;;;;;5056798;28;20043;-73
2021/06/27 04:42:22;;;;;;;5.03;3.55;;;;;;;;;;5068218;28;20140;-73
2021/06/27 04:45:06;;;;;;;5.78;3.50;;;;;;;;;;5070085;28;20261;-74
2021/06/27 04:47:51;;;;;;;4.93;3.15;;;;;;;;;;5058031;28;20038;-73
2021/06/27 04:50:36;;;;;;;5.38;3.42;;;;;;;;;;5051088;28;20043;-74
2021/06/27 04:53:23;;;;;;;5.53;3.15;;;;;;;;;;5069634;28;20755;-73
2021/06/27 04:56:07;;;;;;;5.28;3.22;;;;;;;;;;5069191;28;20409;-73
2021/06/27 04:58:52;;;;;;;4.53;3.30;;;;;;;;;;5066641;28;20035;-73
2021/06/27 05:01:37;;;;;;;4.43;3.00;;;;;;;;;;5050104;28;20086;-74
2021/06/27 05:04:22;;;;;;;3.85;2.85;;;;;;;;;;5074346;28;20043;-77
2021/06/27 05:07:06;;;;;;;5.28;2.92;;;;;;;;;;5064693;28;20039;-74
2021/06/27 05:09:51;;;;;;;5.20;3.10;;;;;;;;;;5065381;28;20039;-74
2021/06/27 05:12:35;;;;;;;4.07;2.90;;;;;;;;;;5064808;28;20871;-73
2021/06/27 05:15:20;;;;;;;5.75;3.28;;;;;;;;;;5065452;28;20450;-73
2021/06/27 05:18:04;;;;;;;4.88;3.05;;;;;;;;;;5061735;28;20044;-73
2021/06/27 05:20:49;;;;;;;4.30;2.95;;;;;;;;;;5055433;28;20110;-73
2021/06/27 05:23:34;;;;;;;4.05;2.78;;;;;;;;;;5059966;28;20530;-73
2021/06/27 05:26:18;;;;;;;4.38;2.72;;;;;;;;;;5062896;28;20063;-73
2021/06/27 05:29:03;;;;;;;7.10;3.25;;;;;;;;;;5080090;28;20440;-74
2021/06/27 05:31:48;;;;;;;4.38;2.53;;;;;;;;;;5070984;28;20121;-73
2021/06/27 05:34:32;;;;;;;4.32;2.92;;;;;;;;;;5079669;28;20183;-74
2021/06/27 05:37:17;;;;;;;4.03;2.80;;;;;;;;;;5067700;28;20522;-74
2021/06/27 05:40:02;;;;;;;4.60;3.45;;;;;;;;;;5068963;28;20667;-75
2021/06/27 05:42:48;;;;;;;4.13;2.75;;;;;;;;;;5062237;28;20826;-74
2021/06/27 05:45:32;;;;;;;5.32;2.85;;;;;;;;;;5071096;28;20047;-75
2021/06/27 05:48:17;;;;;;;3.90;2.90;;;;;;;;;;5060595;28;20067;-74
2021/06/27 05:51:02;;;;;;;4.57;3.03;;;;;;;;;;5066974;28;20067;-74
2021/06/27 05:53:46;;;;;;;3.35;2.47;;;;;;;;;;5061600;28;20097;-74
2021/06/27 05:56:31;;;;;;;4.68;2.67;;;;;;;;;;5045138;28;20162;-73
2021/06/27 05:59:16;;;;;;;4.10;2.90;;;;;;;;;;5061368;28;20499;-74
2021/06/27 06:02:00;;;;;;;4.80;2.95;;;;;;;;;;5061639;28;20112;-74
2021/06/27 06:04:45;;;;;;;4.28;2.90;;;;;;;;;;5057388;28;20576;-74
2021/06/27 06:07:29;;;;;;;6.03;3.20;;;;;;;;;;5060786;28;20899;-74
2021/06/27 06:10:14;;;;;;;4.00;2.63;;;;;;;;;;5065338;28;20038;-74
2021/06/27 06:12:58;;;;;;;5.05;3.08;;;;;;;;;;5064612;28;20106;-73
2021/06/27 06:15:43;;;;;;;5.40;2.75;;;;;;;;;;5066036;28;20027;-74
2021/06/27 06:18:27;;;;;;;5.53;3.00;;;;;;;;;;5067813;28;20040;-74
2021/06/27 06:21:12;;;;;;;5.43;2.88;;;;;;;;;;5065027;28;20086;-74
2021/06/27 06:23:57;;;;;;;4.75;2.92;;;;;;;;;;5067460;28;20046;-74
2021/06/27 06:26:41;;;;;;;4.82;3.30;;;;;;;;;;5065642;28;20065;-74
2021/06/27 06:29:26;;;;;;;3.58;2.92;;;;;;;;;;5048400;28;20039;-74
2021/06/27 06:32:10;;;;;;;3.63;2.67;;;;;;;;;;5065653;28;20507;-75
2021/06/27 06:34:55;;;;;;;5.35;2.83;;;;;;;;;;5065663;28;20445;-74
2021/06/27 06:37:39;;;;;;;3.50;2.60;;;;;;;;;;5079256;28;20093;-73
2021/06/27 06:40:24;;;;;;;6.15;2.90;;;;;;;;;;5072220;28;20086;-74
2021/06/27 06:43:09;;;;;;;4.90;2.60;;;;;;;;;;5063796;28;20043;-74
2021/06/27 06:45:53;;;;;;;4.45;2.42;;;;;;;;;;5063501;28;20040;-74
2021/06/27 06:48:38;;;;;;;4.18;2.70;;;;;;;;;;5052553;28;20115;-74
2021/06/27 06:51:23;;;;;;;3.80;2.60;;;;;;;;;;5068081;28;20051;-74
2021/06/27 06:54:07;;;;;;;4.15;2.50;;;;;;;;;;5071009;28;20124;-74
2021/06/27 06:56:52;;;;;;;3.28;2.38;;;;;;;;;;5077950;28;20556;-75
2021/06/27 06:59:36;;;;;;;4.90;2.92;;;;;;;;;;5076079;28;20465;-74
2021/06/27 07:02:21;;;;;;;4.65;2.70;;;;;;;;;;5072142;28;20038;-74
2021/06/27 07:05:06;;;;;;;4.68;2.42;;;;;;;;;;5071596;28;20036;-76
2021/06/27 07:07:51;;;;;;;4.97;2.60;;;;;;;;;;5066516;28;20146;-76
2021/06/27 07:10:35;;;;;;;3.85;2.40;;;;;;;;;;5058546;28;20110;-74
2021/06/27 07:13:20;;;;;;;3.72;2.50;;;;;;;;;;5064089;28;20075;-74
2021/06/27 07:16:05;;;;;;;4.47;2.60;;;;;;;;;;5060784;28;20124;-74
2021/06/27 07:18:50;;;;;;;3.40;2.08;;;;;;;;;;5054631;28;20043;-74
2021/06/27 07:21:35;;;;;;;3.00;2.20;;;;;;;;;;5066392;28;20055;-74
2021/06/27 07:24:19;;;;;;;5.00;2.90;;;;;;;;;;5064201;28;20039;-74
2021/06/27 07:27:04;;;;;;;3.65;2.65;;;;;;;;;;5065312;28;20075;-74
2021/06/27 07:29:50;;;;;;;3.28;2.40;;;;;;;;;;5072372;28;20407;-73
2021/06/27 07:32:34;;;;;;;3.72;2.22;;;;;;;;;;5065571;28;20470;-74
2021/06/27 07:35:19;;;;;;;2.65;2.20;;;;;;;;;;5050605;28;20495;-74
2021/06/27 07:38:04;;;;;;;4.65;2.55;;;;;;;;;;5076478;28;20062;-74
2021/06/27 07:40:48;;;;;;;6.07;2.20;;;;;;;;;;5067116;28;20135;-74
2021/06/27 07:43:34;;;;;;;3.38;2.67;;;;;;;;;;5068516;28;20039;-74
2021/06/27 07:46:19;;;;;;;4.00;2.47;;;;;;;;;;5063587;28;20140;-74
2021/06/27 07:49:04;;;;;;;3.75;2.20;;;;;;;;;;5064702;28;20113;-74
2021/06/27 07:51:48;;;;;;;3.95;2.60;;;;;;;;;;5061303;28;20706;-74
2021/06/27 07:54:33;;;;;;;3.13;2.20;;;;;;;;;;5055566;28;20678;-74
2021/06/27 07:57:17;;;;;;;4.15;2.30;;;;;;;;;;5069312;28;20054;-74
2021/06/27 08:00:02;;;;;;;3.83;2.30;;;;;;;;;;5049358;28;20064;-74
2021/06/27 08:02:47;;;;;;;3.42;2.47;;;;;;;;;;5064281;28;20047;-74
2021/06/27 08:05:31;;;;;;;3.17;2.22;;;;;;;;;;5074054;28;20062;-74
2021/06/27 08:08:16;;;;;;;2.90;2.15;;;;;;;;;;5068744;28;20043;-75
2021/06/27 08:11:01;;;;;;;3.78;2.28;;;;;;;;;;5058628;28;20088;-74
2021/06/27 08:13:45;;;;;;;2.95;2.17;;;;;;;;;;5068743;28;20075;-74
2021/06/27 08:16:30;;;;;;;4.18;2.30;;;;;;;;;;5067712;28;20051;-75
2021/06/27 08:19:15;;;;;;;3.25;2.30;;;;;;;;;;5064825;28;20047;-74
2021/06/27 08:21:59;;;;;;;2.83;2.28;;;;;;;;;;5049815;28;20097;-74
2021/06/27 08:24:45;;;;;;;4.38;2.70;;;;;;;;;;5055961;28;20106;-74
2021/06/27 08:27:30;;;;;;;3.30;2.22;;;;;;;;;;5063256;28;20062;-74
2021/06/27 08:30:15;;;;;;;3.15;2.40;;;;;;;;;;5055527;28;20052;-74
2021/06/27 08:33:00;;;;;;;4.20;2.40;;;;;;;;;;5063402;28;20392;-74
2021/06/27 08:35:44;;;;;;;4.32;2.47;;;;;;;;;;5064729;28;20749;-74
2021/06/27 08:38:29;;;;;;;3.45;2.35;;;;;;;;;;5056146;28;20066;-74
2021/06/27 08:41:14;;;;;;;2.83;2.22;;;;;;;;;;5068367;28;20059;-74
2021/06/27 08:44:00;;;;;;;3.30;2.38;;;;;;;;;;5050923;28;20190;-74
2021/06/27 08:46:44;;;;;;;4.28;2.53;;;;;;;;;;5063375;28;20055;-74
2021/06/27 08:49:29;;;;;;;3.72;2.13;;;;;;;;;;5053872;28;20154;-74
2021/06/27 08:52:20;;;;;;;2.78;2.22;;;;;;;;;;5052127;28;20772;-75
2021/06/27 08:55:06;;;;;;;3.93;2.43;;;;;;;;;;5063459;28;21429;-76
2021/06/27 08:57:50;;;;;;;2.63;2.22;;;;;;;;;;5053836;28;20107;-75
2021/06/27 09:00:35;;;;;;;3.60;2.42;;;;;;;;;;5062150;28;20051;-74
2021/06/27 09:03:19;;;;;;;3.33;2.33;;;;;;;;;;5061635;28;20054;-74
2021/06/27 09:06:04;;;;;;;3.92;2.78;;;;;;;;;;5061811;28;20051;-73
2021/06/27 09:09:10;;;;;;;4.07;3.15;;;;;;;;;;5052008;28;20040;-74
2021/06/27 09:12:01;;;;;;;3.53;2.40;;;;;;;;;;5064201;28;20103;-75
2021/06/27 09:14:46;;;;;;;2.67;2.10;;;;;;;;;;5060945;28;20031;-75
2021/06/27 09:17:31;;;;;;;3.28;2.15;;;;;;;;;;5061558;28;20399;-74
2021/06/27 09:20:15;;;;;;;4.20;2.40;;;;;;;;;;5066131;28;20094;-74
2021/06/27 09:23:00;;;;;;;2.70;2.08;;;;;;;;;;5062433;28;20086;-74
2021/06/27 09:25:45;;;;;;;2.72;2.05;;;;;;;;;;5060638;28;20082;-74
2021/06/27 09:28:46;;;;;;;2.90;2.20;;;;;;;;;;5049745;28;20067;-74
2021/06/27 09:31:32;;;;;;;2.85;2.10;;;;;;;;;;5063531;28;20055;-73
2021/06/27 09:34:17;;;;;;;2.53;2.13;;;;;;;;;;5061278;28;20183;-74
2021/06/27 09:37:01;;;;;;;3.25;2.42;;;;;;;;;;5062169;28;20034;-74
2021/06/27 09:39:55;;;;;;;3.08;2.00;;;;;;;;;;5061138;28;20081;-74
2021/06/27 09:42:40;;;;;;;3.10;1.90;;;;;;;;;;5060111;28;20078;-74
2021/06/27 09:45:25;;;;;;;2.78;2.13;;;;;;;;;;5062041;28;20055;-74
2021/06/27 09:48:09;;;;;;;2.75;1.95;;;;;;;;;;5058226;28;20081;-74
2021/06/27 09:50:55;;;;;;;3.17;2.20;;;;;;;;;;5062209;28;20043;-75
2021/06/27 09:53:45;;;;;;;3.28;2.45;;;;;;;;;;5064966;28;20412;-75
2021/06/27 09:56:30;;;;;;;3.13;2.30;;;;;;;;;;5048009;28;20048;-74
2021/06/27 09:59:15;;;;;;;2.72;2.20;;;;;;;;;;5044746;28;20121;-74
2021/06/27 10:02:00;;;;;;;2.60;2.20;;;;;;;;;;5060151;28;20729;-74
2021/06/27 10:04:44;;;;;;;3.35;2.20;;;;;;;;;;5045546;28;20036;-73
2021/06/27 10:07:38;;;;;;;2.88;2.28;;;;;;;;;;5061235;28;20036;-74
2021/06/27 10:10:23;;;;;;;3.00;2.00;;;;;;;;;;5062209;28;20040;-74
2021/06/27 10:13:08;;;;;;;2.90;1.90;;;;;;;;;;5065594;28;20050;-74
2021/06/27 10:15:52;;;;;;;2.92;2.30;;;;;;;;;;5062571;28;20139;-74
2021/06/27 10:18:37;;;;;;;3.00;2.20;;;;;;;;;;5061024;28;20525;-74
2021/06/27 10:21:21;;;;;;;2.33;1.88;;;;;;;;;;5054240;28;20082;-74
2021/06/27 10:24:06;;;;;;;3.75;1.83;;;;;;;;;;5060682;28;20395;-75
2021/06/27 10:26:51;;;;;;;2.45;1.90;;;;;;;;;;5059776;28;20058;-74
2021/06/27 10:29:39;;;;;;;3.33;2.30;;;;;;;;;;5059295;28;20051;-74
2021/06/27 10:32:24;;;;;;;3.00;2.15;;;;;;;;;;5046731;28;20867;-74
2021/06/27 10:35:09;;;;;;;3.05;2.30;;;;;;;;;;5045856;28;20101;-74
2021/06/27 10:37:54;;;;;;;3.13;2.05;;;;;;;;;;5062396;28;20129;-74
2021/06/27 10:40:52;;;;;;;2.70;2.03;;;;;;;;;;5046811;28;20043;-74
2021/06/27 10:43:55;;;;;;;2.33;1.73;;;;;;;;;;5061248;28;20043;-74
2021/06/27 10:46:41;;;;;;;2.55;1.80;;;;;;;;;;5063425;28;20039;-74
2021/06/27 10:52:16;;;;;;;2.97;2.05;;;;;;;;;;5062689;28;20118;-75
2021/06/27 10:55:15;;;;;;;2.30;2.08;;;;;;;;;;5066248;28;20141;-74
2021/06/27 10:58:02;;;;;;;2.42;2.10;;;;;;;;;;5047549;28;20047;-75
2021/06/27 11:00:53;;;;;;;2.40;1.80;;;;;;;;;;5043438;28;20046;-75
2021/06/27 11:03:41;;;;;;;2.90;2.08;;;;;;;;;;5065219;28;20071;-75
2021/06/27 11:06:26;;;;;;;2.83;2.10;;;;;;;;;;5065976;28;20177;-74
2021/06/27 11:09:26;;;;;;;2.97;2.10;;;;;;;;;;5065797;28;20035;-75
2021/06/27 11:12:10;;;;;;;4.47;2.10;;;;;;;;;;5047967;28;20052;-74
2021/06/27 11:15:14;;;;;;;3.00;2.10;;;;;;;;;;5061595;28;20110;-75
2021/06/27 11:18:02;;;;;;;3.58;2.20;;;;;;;;;;5057353;28;20120;-75
2021/06/27 11:20:56;;;;;;;3.17;2.10;;;;;;;;;;5063239;28;20039;-75
2021/06/27 11:23:47;;;;;;;3.70;2.25;;;;;;;;;;5065165;28;20040;-75
2021/06/27 11:26:51;;;;;;;2.97;2.17;;;;;;;;;;5064529;28;20422;-75
2021/06/27 11:29:36;;;;;;;3.00;2.10;;;;;;;;;;5054510;28;20106;-75
2021/06/27 11:32:24;;;;;;;4.78;2.30;;;;;;;;;;5067732;28;20550;-74
2021/06/27 11:35:09;;;;;;;4.30;2.28;;;;;;;;;;5062903;28;20043;-76
2021/06/27 11:37:53;;;;;;;4.65;2.40;;;;;;;;;;5065042;28;20052;-74
2021/06/27 11:41:04;;;;;;;7.15;2.45;;;;;;;;;;5055913;28;20050;-75
2021/06/27 11:43:53;;;;;;;3.77;2.47;;;;;;;;;;5053010;28;20131;-75
2021/06/27 11:46:42;;;;;;;4.05;2.25;;;;;;;;;;5050759;28;20145;-75
2021/06/27 11:49:30;;;;;;;4.30;2.50;;;;;;;;;;5047054;28;20047;-73
2021/06/27 11:52:15;;;;;;;4.47;2.60;;;;;;;;;;5044093;28;20047;-74
2021/06/27 11:55:04;;;;;;;4.47;2.50;;;;;;;;;;5050295;28;20044;-74
2021/06/27 11:57:49;;;;;;;3.90;2.40;;;;;;;;;;5066744;28;20410;-75
2021/06/27 12:00:34;;;;;;;4.22;2.20;;;;;;;;;;5061291;28;20086;-75
2021/06/27 12:03:20;;;;;;;4.55;2.78;;;;;;;;;;5077440;28;20066;-74
2021/06/27 12:06:05;;;;;;;5.82;2.45;;;;;;;;;;5063899;28;20059;-75
2021/06/27 12:08:49;;;;;;;4.88;2.22;;;;;;;;;;5066801;28;20093;-75
2021/06/27 12:11:36;;;;;;;6.13;2.58;;;;;;;;;;5065581;28;20095;-75
2021/06/27 12:14:21;;;;;;;6.03;2.70;;;;;;;;;;5063760;28;20043;-75
2021/06/27 12:17:22;;;;;;;7.85;3.08;;;;;;;;;;5064957;28;20043;-75
2021/06/27 12:20:07;;;;;;;8.73;3.70;;;;;;;;;;5052025;28;20097;-75
2021/06/27 12:22:56;;;;;;;7.20;2.83;;;;;;;;;;5064106;28;20082;-74
2021/06/27 12:25:42;;;;;;;5.18;3.17;;;;;;;;;;5064079;28;20082;-74
2021/06/27 12:28:40;;;;;;;6.20;3.70;;;;;;;;;;5043656;28;20856;-74
2021/06/27 12:31:32;;;;;;;5.43;3.50;;;;;;;;;;5058676;28;20114;-74
2021/06/27 12:34:16;;;;;;;6.85;3.70;;;;;;;;;;5043734;28;20051;-75
2021/06/27 12:37:01;;;;;;;5.82;4.10;;;;;;;;;;5076186;28;20036;-75
2021/06/27 12:39:46;;;;;;;5.72;4.13;;;;;;;;;;5056434;28;20040;-76
2021/06/27 12:42:32;;;;;;;7.70;4.93;;;;;;;;;;5049820;28;20159;-74
2021/06/27 12:45:18;;;;;;;9.32;5.10;;;;;;;;;;5055988;28;20090;-74
2021/06/27 12:48:09;;;;;;;6.93;4.80;;;;;;;;;;5055806;28;20506;-74
2021/06/27 12:50:55;;;;;;;7.80;4.75;;;;;;;;;;5054741;28;20102;-74
2021/06/27 12:53:39;;;;;;;8.05;4.72;;;;;;;;;;5056576;28;20055;-74
2021/06/27 12:56:24;;;;;;;8.85;4.80;;;;;;;;;;5047489;28;20762;-74
2021/06/27 12:59:09;;;;;;;6.60;4.70;;;;;;;;;;5038321;28;20051;-74
2021/06/27 13:02:00;;;;;;;6.13;4.72;;;;;;;;;;5046406;28;20494;-75
2021/06/27 13:04:45;;;;;;;7.95;4.50;;;;;;;;;;5059726;28;20632;-75
2021/06/27 13:07:29;;;;;;;4.97;4.03;;;;;;;;;;5061661;28;20044;-75
2021/06/27 13:10:18;;;;;;;6.68;4.50;;;;;;;;;;5061429;28;20110;-74
2021/06/27 13:13:05;;;;;;;5.18;4.65;;;;;;;;;;5062886;28;20165;-75
2021/06/27 13:15:50;;;;;;;5.00;4.07;;;;;;;;;;5063392;28;20483;-74
2021/06/27 13:18:35;;;;;;;5.93;4.70;;;;;;;;;;5068723;28;20055;-74
2021/06/27 13:21:20;;;;;;;5.75;4.35;;;;;;;;;;5067505;28;20102;-74
2021/06/27 13:24:05;;;;;;;5.53;4.13;;;;;;;;;;5058124;28;20090;-74
2021/06/27 13:26:50;;;;;;;7.38;4.38;;;;;;;;;;5063968;28;20079;-75
2021/06/27 13:29:34;;;;;;;5.53;4.15;;;;;;;;;;5061613;28;20515;-75
2021/06/27 13:32:25;;;;;;;4.30;3.90;;;;;;;;;;5060330;28;20043;-75
2021/06/27 13:35:30;;;;;;;6.07;4.00;;;;;;;;;;5063084;28;20043;-75
2021/06/27 13:38:16;;;;;;;5.63;4.18;;;;;;;;;;5056314;28;20328;-75
2021/06/27 13:41:01;;;;;;;6.18;3.88;;;;;;;;;;5060844;28;20594;-74
2021/06/27 13:43:47;;;;;;;6.85;3.65;;;;;;;;;;5062207;28;20048;-75
2021/06/27 13:46:31;;;;;;;5.05;3.80;;;;;;;;;;5045597;28;20064;-74
2021/06/27 13:49:16;;;;;;;4.05;3.47;;;;;;;;;;5053619;28;20039;-76
2021/06/27 13:52:01;;;;;;;3.97;3.35;;;;;;;;;;5051688;28;20637;-75
2021/06/27 13:54:45;;;;;;;3.85;3.30;;;;;;;;;;5042270;28;20086;-74
2021/06/27 13:57:30;;;;;;;5.15;3.47;;;;;;;;;;5047527;28;20055;-74
2021/06/27 14:00:15;;;;;;;4.63;3.63;;;;;;;;;;5061137;28;20534;-75
2021/06/27 14:02:59;;;;;;;4.00;3.33;;;;;;;;;;5043669;28;20554;-74
2021/06/27 14:05:44;;;;;;;5.97;3.38;;;;;;;;;;5055332;28;20047;-75
2021/06/27 14:08:28;;;;;;;5.25;3.20;;;;;;;;;;5075052;28;20079;-75
2021/06/27 14:11:13;;;;;;;3.38;3.00;;;;;;;;;;5061845;28;20079;-74
2021/06/27 14:13:58;;;;;;;3.75;3.00;;;;;;;;;;5060148;28;20511;-75
2021/06/27 14:16:47;;;;;;;3.90;2.90;;;;;;;;;;5052105;28;20079;-75
2021/06/27 14:19:31;;;;;;;3.75;2.80;;;;;;;;;;5061516;28;20042;-75
2021/06/27 14:22:15;;;;;;;4.40;3.00;;;;;;;;;;5062598;28;20177;-75
2021/06/27 14:25:00;;;;;;;4.80;3.13;;;;;;;;;;5061151;28;20513;-74
2021/06/27 14:27:45;;;;;;;4.55;2.78;;;;;;;;;;5062433;28;20043;-75
2021/06/27 14:30:30;;;;;;;3.67;2.90;;;;;;;;;;5063981;28;20051;-74
2021/06/27 14:33:15;;;;;;;3.20;2.90;;;;;;;;;;5038209;28;20047;-75
2021/06/27 14:35:59;;;;;;;3.33;2.63;;;;;;;;;;5060477;28;20489;-75
2021/06/27 14:38:44;;;;;;;3.55;2.88;;;;;;;;;;5047062;28;20522;-75
2021/06/27 14:41:30;;;;;;;2.85;2.55;;;;;;;;;;5065543;28;20035;-75
2021/06/27 14:44:14;;;;;;;3.55;2.97;;;;;;;;;;5067890;28;20043;-75
2021/06/27 14:46:59;;;;;;;3.55;2.90;;;;;;;;;;5063439;28;20036;-75
2021/06/27 14:49:43;;;;;;;2.95;2.60;;;;;;;;;;5063310;28;20115;-74
2021/06/27 14:52:28;;;;;;;2.72;2.40;;;;;;;;;;5065494;28;20059;-75
2021/06/27 14:55:13;;;;;;;3.35;2.60;;;;;;;;;;5065910;28;20120;-75
2021/06/27 14:57:58;;;;;;;3.28;2.53;;;;;;;;;;5051540;28;20083;-75
2021/06/27 15:00:42;;;;;;;3.65;2.80;;;;;;;;;;5054161;28;20526;-75
2021/06/27 15:03:27;;;;;;;3.38;2.50;;;;;;;;;;5066848;28;20422;-75
2021/06/27 15:06:11;;;;;;;3.47;2.60;;;;;;;;;;5054629;28;20495;-75
2021/06/27 15:08:56;;;;;;;3.03;2.60;;;;;;;;;;5063292;28;20534;-74
2021/06/27 15:11:40;;;;;;;3.17;2.40;;;;;;;;;;5044357;28;20074;-74
2021/06/27 15:14:25;;;;;;;3.00;2.35;;;;;;;;;;5049632;28;20120;-74
2021/06/27 15:17:10;;;;;;;3.95;2.60;;;;;;;;;;5055653;28;20132;-76
2021/06/27 15:19:54;;;;;;;2.80;2.20;;;;;;;;;;5048559;28;20048;-75
2021/06/27 15:22:39;;;;;;;4.50;2.47;;;;;;;;;;5064335;28;20403;-74
2021/06/27 15:25:24;;;;;;;3.35;2.30;;;;;;;;;;5044553;28;20052;-74
2021/06/27 15:28:08;;;;;;;4.03;2.05;;;;;;;;;;5055444;28;20044;-73
2021/06/27 15:30:53;;;;;;;2.70;2.03;;;;;;;;;;5054138;28;20063;-74
2021/06/27 15:33:37;;;;;;;3.10;2.20;;;;;;;;;;5050685;28;20155;-74
2021/06/27 15:36:22;;;;;;;2.80;2.20;;;;;;;;;;5062218;28;20036;-74
2021/06/27 15:39:08;;;;;;;2.72;2.15;;;;;;;;;;5054477;28;20044;-74
2021/06/27 15:41:53;;;;;;;3.08;2.35;;;;;;;;;;5055873;28;20044;-73
2021/06/27 15:44:37;;;;;;;2.70;2.08;;;;;;;;;;5057868;28;20113;-74
2021/06/27 15:47:22;;;;;;;2.83;2.20;;;;;;;;;;5056080;28;20098;-74
2021/06/27 15:50:07;;;;;;;2.70;2.00;;;;;;;;;;5057002;28;20044;-76
2021/06/27 15:52:52;;;;;;;2.25;2.05;;;;;;;;;;5054186;28;20681;-74
2021/06/27 15:55:36;;;;;;;2.88;2.20;;;;;;;;;;5054291;28;20120;-74
2021/06/27 15:58:20;;;;;;;2.88;2.20;;;;;;;;;;5064304;28;20039;-74
2021/06/27 16:01:05;;;;;;;3.25;2.13;;;;;;;;;;5058730;28;20039;-74
2021/06/27 16:03:49;;;;;;;2.75;2.22;;;;;;;;;;5058121;28;20055;-74
2021/06/27 16:06:34;;;;;;;2.38;2.10;;;;;;;;;;5058803;28;20093;-74
2021/06/27 16:09:18;;;;;;;2.63;2.05;;;;;;;;;;5051080;28;20103;-74
2021/06/27 16:12:03;;;;;;;2.20;2.00;;;;;;;;;;5055224;28;20043;-74
2021/06/27 16:14:48;;;;;;;2.50;1.90;;;;;;;;;;5057452;28;20048;-74
2021/06/27 16:17:32;;;;;;;2.53;1.90;;;;;;;;;;5053125;28;20450;-74
2021/06/27 16:20:17;;;;;;;2.83;2.00;;;;;;;;;;5055356;28;20048;-75
2021/06/27 16:23:02;;;;;;;2.40;2.00;;;;;;;;;;5068852;28;20458;-74
2021/06/27 16:25:49;;;;;;;2.53;1.98;;;;;;;;;;5053714;28;20047;-74
2021/06/27 16:28:34;;;;;;;3.47;2.15;;;;;;;;;;5055567;28;20348;-75
2021/06/27 16:31:19;;;;;;;2.63;1.70;;;;;;;;;;5054259;28;20092;-74
2021/06/27 16:34:04;;;;;;;2.92;2.05;;;;;;;;;;5039472;28;20051;-75
2021/06/27 16:36:49;;;;;;;3.08;1.98;;;;;;;;;;5057400;28;20040;-74